Time;durP1;ratioP1;P1;durP2;ratioP2;P2;SDS_P1;SDS_P2;PMS_P1;PMS_P2;Temp;Humidity;BMP_temperature;BMP_pressure;BME280_temperature;BME280_humidity;BME280_pressure;Samples;Min_cycle;Max_cycle;Signal;HPM_P1;HPM_P2
2022/06/26 00:01:23;;;;;;;;;;;;;;;;;;5059201;28;19984;-84
2022/06/26 00:03:49;;;;;;;;;;;;;;;;;;5066501;28;20541;-84
2022/06/26 00:06:15;;;;;;;;;;;;;;;;;;5067291;28;19948;-85
2022/06/26 00:08:41;;;;;;;;;;;;;;;;;;5057456;28;20400;-84
2022/06/26 00:11:07;;;;;;;;;;;;;;;;;;5057142;28;20001;-84
2022/06/26 00:13:33;;;;;;;;;;;;;;;;;;5062527;28;20038;-85
2022/06/26 00:16:00;;;;;;;;;;;;;;;;;;5063726;28;19956;-84
2022/06/26 00:18:26;;;;;;;;;;;;;;;;;;5068815;28;19971;-85
2022/06/26 00:20:52;;;;;;;;;;;;;;;;;;5058333;28;19959;-84
2022/06/26 00:23:18;;;;;;;;;;;;;;;;;;5053668;28;19955;-84
2022/06/26 00:25:44;;;;;;;;;;;;;;;;;;5062601;28;19962;-84
2022/06/26 00:28:11;;;;;;;;;;;;;;;;;;5050338;28;19951;-84
2022/06/26 00:30:37;;;;;;;;;;;;;;;;;;5057524;28;19948;-84
2022/06/26 00:33:03;;;;;;;;;;;;;;;;;;5059207;28;20344;-84
2022/06/26 00:35:29;;;;;;;;;;;;;;;;;;5067631;28;19956;-84
2022/06/26 00:37:55;;;;;;;;;;;;;;;;;;5067284;28;19943;-84
2022/06/26 00:40:22;;;;;;;;;;;;;;;;;;5043154;28;19937;-84
2022/06/26 00:42:48;;;;;;;;;;;;;;;;;;5057526;28;19913;-85
2022/06/26 00:45:14;;;;;;;;;;;;;;;;;;5054153;28;20556;-84
2022/06/26 00:47:40;;;;;;;;;;;;;;;;;;5059959;28;19997;-85
2022/06/26 00:50:08;;;;;;;;;;;;;;;;;;5065043;28;19967;-84
2022/06/26 00:52:34;;;;;;;;;;;;;;;;;;5063417;28;19960;-84
2022/06/26 00:55:00;;;;;;;;;;;;;;;;;;5052469;28;19978;-83
2022/06/26 00:57:26;;;;;;;;;;;;;;;;;;5063065;28;20375;-84
2022/06/26 00:59:53;;;;;;;;;;;;;;;;;;5066201;28;20348;-85
2022/06/26 01:02:19;;;;;;;;;;;;;;;;;;5061422;28;19944;-84
2022/06/26 01:04:45;;;;;;;;;;;;;;;;;;5059438;28;19912;-84
2022/06/26 01:07:11;;;;;;;;;;;;;;;;;;5052170;28;19967;-82
2022/06/26 01:09:37;;;;;;;;;;;;;;;;;;5060212;28;19948;-84
2022/06/26 01:12:04;;;;;;;;;;;;;;;;;;5059567;28;20412;-84
2022/06/26 01:14:30;;;;;;;;;;;;;;;;;;5055620;28;19998;-84
2022/06/26 01:16:56;;;;;;;;;;;;;;;;;;5060904;28;20103;-84
2022/06/26 01:19:22;;;;;;;;;;;;;;;;;;5053779;28;20377;-84
2022/06/26 01:21:49;;;;;;;;;;;;;;;;;;5057192;28;19963;-84
2022/06/26 01:24:15;;;;;;;;;;;;;;;;;;5062025;28;19964;-83
2022/06/26 01:26:41;;;;;;;;;;;;;;;;;;5064790;28;19963;-84
2022/06/26 01:29:07;;;;;;;;;;;;;;;;;;5063714;28;19952;-82
2022/06/26 01:31:34;;;;;;;;;;;;;;;;;;5064375;28;19968;-82
2022/06/26 01:34:00;;;;;;;;;;;;;;;;;;5062939;28;20041;-83
2022/06/26 01:36:26;;;;;;;;;;;;;;;;;;5056943;28;19997;-82
2022/06/26 01:38:52;;;;;;;;;;;;;;;;;;5064728;28;20368;-83
2022/06/26 01:41:18;;;;;;;;;;;;;;;;;;5065443;28;19953;-83
2022/06/26 01:43:45;;;;;;;;;;;;;;;;;;5067387;28;19955;-83
2022/06/26 01:46:11;;;;;;;;;;;;;;;;;;5048736;28;19959;-83
2022/06/26 01:48:37;;;;;;;;;;;;;;;;;;5056145;28;19955;-84
2022/06/26 01:51:03;;;;;;;;;;;;;;;;;;5046248;28;20651;-84
2022/06/26 01:53:29;;;;;;;;;;;;;;;;;;5064533;28;20551;-84
2022/06/26 01:55:56;;;;;;;;;;;;;;;;;;5065727;28;19968;-84
2022/06/26 01:58:22;;;;;;;;;;;;;;;;;;5060613;28;19955;-84
2022/06/26 02:00:48;;;;;;;;;;;;;;;;;;5063966;28;19986;-83
2022/06/26 02:03:15;;;;;;;;;;;;;;;;;;5066438;28;19952;-84
2022/06/26 02:05:41;;;;;;;;;;;;;;;;;;5063841;28;19917;-84
2022/06/26 02:08:07;;;;;;;;;;;;;;;;;;5063246;28;20380;-83
2022/06/26 02:13:36;;;;;;;;;;;;;;;;;;5054375;28;20004;-84
2022/06/26 02:16:03;;;;;;;;;;;;;;;;;;5056139;28;19948;-84
2022/06/26 02:18:29;;;;;;;;;;;;;;;;;;5056884;28;20026;-84
2022/06/26 02:20:55;;;;;;;;;;;;;;;;;;5053668;28;20026;-83
2022/06/26 02:23:21;;;;;;;;;;;;;;;;;;5064919;28;19948;-84
2022/06/26 02:25:47;;;;;;;;;;;;;;;;;;5066817;28;19948;-84
2022/06/26 02:28:14;;;;;;;;;;;;;;;;;;5062384;28;19974;-84
2022/06/26 02:30:40;;;;;;;;;;;;;;;;;;5063534;28;20314;-84
2022/06/26 02:33:06;;;;;;;;;;;;;;;;;;5064834;28;19941;-83
2022/06/26 02:35:32;;;;;;;;;;;;;;;;;;5059083;28;19959;-84
2022/06/26 02:37:58;;;;;;;;;;;;;;;;;;5063266;28;19975;-84
2022/06/26 02:40:25;;;;;;;;;;;;;;;;;;5035221;28;19956;-84
2022/06/26 02:42:51;;;;;;;;;;;;;;;;;;5046864;28;19948;-85
2022/06/26 02:45:17;;;;;;;;;;;;;;;;;;5055579;28;20373;-84
2022/06/26 02:47:43;;;;;;;;;;;;;;;;;;5061127;28;19958;-84
2022/06/26 02:50:09;;;;;;;;;;;;;;;;;;5068440;28;19963;-85
2022/06/26 02:52:35;;;;;;;;;;;;;;;;;;5041373;28;19920;-86
2022/06/26 02:55:02;;;;;;;;;;;;;;;;;;5055302;28;19975;-84
2022/06/26 02:57:28;;;;;;;;;;;;;;;;;;5067058;28;19970;-84
2022/06/26 02:59:54;;;;;;;;;;;;;;;;;;5066750;28;20365;-84
2022/06/26 03:02:20;;;;;;;;;;;;;;;;;;5062462;28;19963;-84
2022/06/26 03:04:46;;;;;;;;;;;;;;;;;;5062270;28;19955;-84
2022/06/26 03:07:12;;;;;;;;;;;;;;;;;;5065280;28;19952;-84
2022/06/26 03:09:39;;;;;;;;;;;;;;;;;;5063963;28;19956;-84
2022/06/26 03:12:05;;;;;;;;;;;;;;;;;;5049458;28;20034;-84
2022/06/26 03:14:31;;;;;;;;;;;;;;;;;;5065832;28;19948;-84
2022/06/26 03:16:57;;;;;;;;;;;;;;;;;;5065961;28;19952;-84
2022/06/26 03:19:23;;;;;;;;;;;;;;;;;;5065474;28;19951;-84
2022/06/26 03:21:50;;;;;;;;;;;;;;;;;;5063809;28;19959;-84
2022/06/26 03:24:16;;;;;;;;;;;;;;;;;;5061933;28;19959;-84
2022/06/26 03:26:42;;;;;;;;;;;;;;;;;;5058452;28;19940;-84
2022/06/26 03:29:09;;;;;;;;;;;;;;;;;;5067415;28;19955;-84
2022/06/26 03:31:35;;;;;;;;;;;;;;;;;;5065035;28;19955;-84
2022/06/26 03:34:01;;;;;;;;;;;;;;;;;;5068638;28;20029;-83
2022/06/26 03:36:28;;;;;;;;;;;;;;;;;;5059077;28;19948;-84
2022/06/26 03:38:54;;;;;;;;;;;;;;;;;;5069233;28;19967;-84
2022/06/26 03:41:20;;;;;;;;;;;;;;;;;;5067184;28;20000;-84
2022/06/26 03:43:46;;;;;;;;;;;;;;;;;;5066609;28;19947;-84
2022/06/26 03:46:13;;;;;;;;;;;;;;;;;;5063235;28;19944;-85
2022/06/26 03:48:39;;;;;;;;;;;;;;;;;;5062868;28;19952;-84
2022/06/26 03:51:05;;;;;;;;;;;;;;;;;;5057350;28;20877;-83
2022/06/26 03:53:31;;;;;;;;;;;;;;;;;;5063894;28;19944;-84
2022/06/26 03:55:57;;;;;;;;;;;;;;;;;;5058113;28;19956;-83
2022/06/26 03:58:23;;;;;;;;;;;;;;;;;;5068029;28;19947;-84
2022/06/26 04:00:50;;;;;;;;;;;;;;;;;;5069526;28;19947;-84
2022/06/26 04:03:16;;;;;;;;;;;;;;;;;;5054266;28;19956;-84
2022/06/26 04:05:42;;;;;;;;;;;;;;;;;;5056780;28;19951;-84
2022/06/26 04:08:08;;;;;;;;;;;;;;;;;;5058915;28;20666;-84
2022/06/26 04:10:34;;;;;;;;;;;;;;;;;;5052159;28;19944;-85
2022/06/26 04:13:01;;;;;;;;;;;;;;;;;;5049758;28;19917;-83
2022/06/26 04:15:27;;;;;;;;;;;;;;;;;;5054124;28;20402;-84
2022/06/26 04:17:53;;;;;;;;;;;;;;;;;;5055507;28;19937;-84
2022/06/26 04:20:20;;;;;;;;;;;;;;;;;;5052266;28;19948;-84
2022/06/26 04:22:46;;;;;;;;;;;;;;;;;;5056911;28;20446;-84
2022/06/26 04:25:12;;;;;;;;;;;;;;;;;;5055547;28;19963;-83
2022/06/26 04:27:38;;;;;;;;;;;;;;;;;;5050690;28;19952;-83
2022/06/26 04:30:04;;;;;;;;;;;;;;;;;;5061939;28;19959;-84
2022/06/26 04:32:31;;;;;;;;;;;;;;;;;;5058515;28;19956;-84
2022/06/26 04:34:57;;;;;;;;;;;;;;;;;;5067125;28;19959;-84
2022/06/26 04:37:23;;;;;;;;;;;;;;;;;;5066779;28;19956;-84
2022/06/26 04:39:49;;;;;;;;;;;;;;;;;;5065030;28;19952;-84
2022/06/26 04:42:15;;;;;;;;;;;;;;;;;;5062517;28;20349;-85
2022/06/26 04:44:41;;;;;;;;;;;;;;;;;;5058638;28;19966;-84
2022/06/26 04:47:08;;;;;;;;;;;;;;;;;;5052791;28;20393;-84
2022/06/26 04:49:34;;;;;;;;;;;;;;;;;;5067432;28;19956;-84
2022/06/26 04:52:00;;;;;;;;;;;;;;;;;;5067019;28;19928;-78
2022/06/26 04:54:26;;;;;;;;;;;;;;;;;;5066248;28;19951;-84
2022/06/26 04:56:52;;;;;;;;;;;;;;;;;;5060021;28;19971;-84
2022/06/26 04:59:18;;;;;;;;;;;;;;;;;;5052798;28;19963;-84
2022/06/26 05:01:45;;;;;;;;;;;;;;;;;;5047682;28;19955;-84
2022/06/26 05:04:11;;;;;;;;;;;;;;;;;;5063274;28;19964;-84
2022/06/26 05:06:37;;;;;;;;;;;;;;;;;;5054262;28;20570;-84
2022/06/26 05:09:04;;;;;;;;;;;;;;;;;;5054563;28;19944;-84
2022/06/26 05:11:30;;;;;;;;;;;;;;;;;;5058705;28;19960;-84
2022/06/26 05:13:56;;;;;;;;;;;;;;;;;;5059367;28;19948;-84
2022/06/26 05:16:22;;;;;;;;;;;;;;;;;;5057772;28;19916;-84
2022/06/26 05:18:48;;;;;;;;;;;;;;;;;;5066850;28;19951;-84
2022/06/26 05:21:15;;;;;;;;;;;;;;;;;;5055553;28;19952;-84
2022/06/26 05:23:41;;;;;;;;;;;;;;;;;;5057472;28;19948;-85
2022/06/26 05:26:07;;;;;;;;;;;;;;;;;;5066016;28;20414;-84
2022/06/26 05:28:33;;;;;;;;;;;;;;;;;;5067163;28;20325;-84
2022/06/26 05:31:00;;;;;;;;;;;;;;;;;;5051215;28;19956;-84
2022/06/26 05:33:26;;;;;;;;;;;;;;;;;;5065597;28;20467;-83
2022/06/26 05:35:52;;;;;;;;;;;;;;;;;;5066668;28;20412;-84
2022/06/26 05:38:18;;;;;;;;;;;;;;;;;;5048355;28;19945;-84
2022/06/26 05:40:44;;;;;;;;;;;;;;;;;;5060210;28;19943;-84
2022/06/26 05:43:11;;;;;;;;;;;;;;;;;;5063061;28;20009;-84
2022/06/26 05:45:37;;;;;;;;;;;;;;;;;;5057505;28;19955;-84
2022/06/26 05:48:03;;;;;;;;;;;;;;;;;;5052667;28;20512;-84
2022/06/26 05:50:29;;;;;;;;;;;;;;;;;;5066420;28;20018;-84
2022/06/26 05:52:55;;;;;;;;;;;;;;;;;;5058566;28;19955;-84
2022/06/26 05:55:21;;;;;;;;;;;;;;;;;;5059410;28;19971;-82
2022/06/26 05:57:48;;;;;;;;;;;;;;;;;;5059626;28;19952;-84
2022/06/26 06:00:16;;;;;;;;;;;;;;;;;;5060192;28;20317;-84
2022/06/26 06:02:42;;;;;;;;;;;;;;;;;;5057791;28;19921;-84
2022/06/26 06:05:08;;;;;;;;;;;;;;;;;;5048244;28;19967;-84
2022/06/26 06:07:36;;;;;;;;;;;;;;;;;;5065259;28;19948;-84
2022/06/26 06:10:02;;;;;;;;;;;;;;;;;;5062565;28;19949;-82
2022/06/26 06:12:28;;;;;;;;;;;;;;;;;;5062428;28;20523;-85
2022/06/26 06:14:54;;;;;;;;;;;;;;;;;;5048847;28;20040;-84
2022/06/26 06:17:35;;;;;;;;;;;;;;;;;;5043652;28;20315;-85
2022/06/26 06:20:03;;;;;;;;;;;;;;;;;;5059630;28;19944;-82
2022/06/26 06:22:29;;;;;;;;;;;;;;;;;;5060014;28;19962;-83
2022/06/26 06:24:56;;;;;;;;;;;;;;;;;;5055471;28;20645;-83
2022/06/26 06:27:22;;;;;;;;;;;;;;;;;;5067252;28;19919;-83
2022/06/26 06:29:48;;;;;;;;;;;;;;;;;;5062137;28;20604;-84
2022/06/26 06:32:14;;;;;;;;;;;;;;;;;;5066403;28;20021;-84
2022/06/26 06:34:40;;;;;;;;;;;;;;;;;;5051499;28;19952;-83
2022/06/26 06:37:07;;;;;;;;;;;;;;;;;;5059024;28;19958;-82
2022/06/26 06:39:33;;;;;;;;;;;;;;;;;;5069861;28;19950;-83
2022/06/26 06:41:59;;;;;;;;;;;;;;;;;;5063881;28;20376;-83
2022/06/26 06:44:25;;;;;;;;;;;;;;;;;;5057807;28;19952;-85
2022/06/26 06:46:51;;;;;;;;;;;;;;;;;;5058621;28;19943;-85
2022/06/26 06:49:18;;;;;;;;;;;;;;;;;;5064963;28;19955;-84
2022/06/26 06:51:44;;;;;;;;;;;;;;;;;;5070158;28;19956;-85
2022/06/26 06:54:10;;;;;;;;;;;;;;;;;;5069521;28;19952;-84
2022/06/26 06:56:36;;;;;;;;;;;;;;;;;;5052440;28;19956;-84
2022/06/26 06:59:03;;;;;;;;;;;;;;;;;;5070068;28;19948;-84
2022/06/26 07:01:29;;;;;;;;;;;;;;;;;;5059180;28;19952;-83
2022/06/26 07:03:55;;;;;;;;;;;;;;;;;;5061715;28;19955;-83
2022/06/26 07:06:21;;;;;;;;;;;;;;;;;;5059692;28;19959;-83
2022/06/26 07:08:47;;;;;;;;;;;;;;;;;;5051596;28;19956;-84
2022/06/26 07:11:13;;;;;;;;;;;;;;;;;;5067551;28;20447;-84
2022/06/26 07:13:40;;;;;;;;;;;;;;;;;;5063517;28;19962;-84
2022/06/26 07:16:06;;;;;;;;;;;;;;;;;;5034546;28;20005;-84
2022/06/26 07:18:32;;;;;;;;;;;;;;;;;;5061863;28;19951;-84
2022/06/26 07:20:58;;;;;;;;;;;;;;;;;;5065024;28;19967;-84
2022/06/26 07:23:24;;;;;;;;;;;;;;;;;;5064331;28;20313;-85
2022/06/26 07:25:51;;;;;;;;;;;;;;;;;;5063909;28;19948;-83
2022/06/26 07:28:17;;;;;;;;;;;;;;;;;;5059025;28;19941;-84
2022/06/26 07:30:43;;;;;;;;;;;;;;;;;;5059560;28;19952;-84
2022/06/26 07:34:12;;;;;;;;;;;;;;;;;;5065424;28;19974;-83
2022/06/26 07:35:55;;;;;;;;;;;;;;;;;;5059438;28;19948;-84
2022/06/26 07:38:21;;;;;;;;;;;;;;;;;;5063090;28;20025;-84
2022/06/26 07:40:48;;;;;;;;;;;;;;;;;;5060057;28;19962;-84
2022/06/26 07:43:14;;;;;;;;;;;;;;;;;;5049222;28;20404;-83
2022/06/26 07:45:40;;;;;;;;;;;;;;;;;;5062276;28;19948;-83
2022/06/26 07:48:06;;;;;;;;;;;;;;;;;;5050943;28;19960;-81
2022/06/26 07:50:32;;;;;;;;;;;;;;;;;;5061038;28;19984;-84
2022/06/26 07:52:58;;;;;;;;;;;;;;;;;;5055045;28;20020;-84
2022/06/26 07:55:25;;;;;;;;;;;;;;;;;;5068181;28;19964;-85
2022/06/26 07:57:51;;;;;;;;;;;;;;;;;;5060286;28;20368;-84
2022/06/26 08:00:17;;;;;;;;;;;;;;;;;;5059657;28;19989;-85
2022/06/26 08:02:43;;;;;;;;;;;;;;;;;;5053608;28;19940;-85
2022/06/26 08:05:09;;;;;;;;;;;;;;;;;;5057652;28;20376;-85
2022/06/26 08:07:36;;;;;;;;;;;;;;;;;;5067431;28;19940;-85
2022/06/26 08:10:02;;;;;;;;;;;;;;;;;;5041804;28;20372;-84
2022/06/26 08:12:28;;;;;;;;;;;;;;;;;;5068331;28;19963;-85
2022/06/26 08:14:54;;;;;;;;;;;;;;;;;;5047303;28;20436;-85
2022/06/26 08:17:20;;;;;;;;;;;;;;;;;;5042286;28;19935;-84
2022/06/26 08:19:47;;;;;;;;;;;;;;;;;;5051956;28;20373;-85
2022/06/26 08:22:13;;;;;;;;;;;;;;;;;;5060736;28;19960;-85
2022/06/26 08:24:41;;;;;;;;;;;;;;;;;;5068515;28;19967;-84
2022/06/26 08:27:07;;;;;;;;;;;;;;;;;;5051927;28;20444;-84
2022/06/26 08:29:34;;;;;;;;;;;;;;;;;;5050998;28;19930;-84
2022/06/26 08:32:00;;;;;;;;;;;;;;;;;;5061828;28;20383;-84
2022/06/26 08:34:26;;;;;;;;;;;;;;;;;;5060535;28;21748;-85
2022/06/26 08:36:53;;;;;;;;;;;;;;;;;;5044627;28;19944;-84
2022/06/26 08:39:20;;;;;;;;;;;;;;;;;;5060646;28;19948;-84
2022/06/26 08:41:46;;;;;;;;;;;;;;;;;;5066898;28;19956;-85
2022/06/26 08:44:13;;;;;;;;;;;;;;;;;;5064691;28;20079;-84
2022/06/26 08:46:39;;;;;;;;;;;;;;;;;;5056176;28;19979;-85
2022/06/26 08:49:05;;;;;;;;;;;;;;;;;;5063019;28;19982;-85
2022/06/26 08:51:31;;;;;;;;;;;;;;;;;;5052073;28;20343;-85
2022/06/26 08:53:57;;;;;;;;;;;;;;;;;;5062045;28;19962;-84
2022/06/26 08:56:23;;;;;;;;;;;;;;;;;;5050608;28;20026;-84
2022/06/26 08:58:50;;;;;;;;;;;;;;;;;;5051990;28;19960;-84
2022/06/26 09:01:16;;;;;;;;;;;;;;;;;;5056828;28;19944;-85
2022/06/26 09:03:42;;;;;;;;;;;;;;;;;;5048905;28;19959;-84
2022/06/26 09:06:08;;;;;;;;;;;;;;;;;;5048595;28;19966;-84
2022/06/26 09:08:34;;;;;;;;;;;;;;;;;;5067943;28;19956;-84
2022/06/26 09:11:00;;;;;;;;;;;;;;;;;;5062608;28;19964;-84
2022/06/26 09:13:27;;;;;;;;;;;;;;;;;;5064151;28;20814;-85
2022/06/26 09:15:53;;;;;;;;;;;;;;;;;;5060482;28;20410;-85
2022/06/26 09:18:19;;;;;;;;;;;;;;;;;;5059949;28;19955;-84
2022/06/26 09:20:45;;;;;;;;;;;;;;;;;;5065481;28;19959;-84
2022/06/26 09:23:11;;;;;;;;;;;;;;;;;;5063344;28;19948;-85
2022/06/26 09:25:37;;;;;;;;;;;;;;;;;;5063617;28;19991;-84
2022/06/26 09:28:04;;;;;;;;;;;;;;;;;;5055665;28;19956;-84
2022/06/26 09:30:30;;;;;;;;;;;;;;;;;;5059551;28;19959;-84
2022/06/26 09:32:56;;;;;;;;;;;;;;;;;;5066785;28;19970;-84
2022/06/26 09:35:22;;;;;;;;;;;;;;;;;;5050026;28;19956;-85
2022/06/26 09:37:49;;;;;;;;;;;;;;;;;;5056287;28;19921;-85
2022/06/26 09:40:16;;;;;;;;;;;;;;;;;;5062236;28;19948;-85
2022/06/26 09:42:42;;;;;;;;;;;;;;;;;;5064200;28;20385;-84
2022/06/26 09:45:08;;;;;;;;;;;;;;;;;;5066674;28;19955;-84
2022/06/26 09:47:35;;;;;;;;;;;;;;;;;;5048651;28;19948;-84
2022/06/26 09:50:01;;;;;;;;;;;;;;;;;;5058466;28;20498;-85
2022/06/26 09:52:27;;;;;;;;;;;;;;;;;;5052277;28;21339;-85
2022/06/26 09:54:53;;;;;;;;;;;;;;;;;;5065136;28;19963;-85
2022/06/26 09:57:20;;;;;;;;;;;;;;;;;;5066036;28;20380;-85
2022/06/26 09:59:46;;;;;;;;;;;;;;;;;;5068450;28;19913;-86
2022/06/26 10:07:41;;;;;;;;;;;;;;;;;;5066691;28;20252;-85
2022/06/26 10:10:08;;;;;;;;;;;;;;;;;;5070816;28;19956;-84
2022/06/26 10:12:34;;;;;;;;;;;;;;;;;;5063921;28;19972;-86
2022/06/26 10:15:00;;;;;;;;;;;;;;;;;;5066791;28;19940;-86
2022/06/26 10:17:26;;;;;;;;;;;;;;;;;;5061499;28;19943;-87
2022/06/26 10:19:52;;;;;;;;;;;;;;;;;;5065854;28;19956;-85
2022/06/26 10:22:19;;;;;;;;;;;;;;;;;;5072084;28;19956;-86
2022/06/26 10:24:45;;;;;;;;;;;;;;;;;;5061423;28;19970;-86
2022/06/26 10:27:11;;;;;;;;;;;;;;;;;;5061428;28;19940;-87
2022/06/26 10:29:37;;;;;;;;;;;;;;;;;;5064322;28;19948;-86
2022/06/26 10:32:03;;;;;;;;;;;;;;;;;;5069624;28;20649;-85
2022/06/26 10:34:31;;;;;;;;;;;;;;;;;;5071156;28;19947;-85
2022/06/26 10:36:57;;;;;;;;;;;;;;;;;;5062328;28;19960;-86
2022/06/26 10:39:23;;;;;;;;;;;;;;;;;;5060231;28;19955;-87
2022/06/26 10:44:34;;;;;;;;;;;;;;;;;;5062047;28;21318;-87
2022/06/26 10:47:01;;;;;;;;;;;;;;;;;;5064049;28;20380;-86
2022/06/26 10:49:27;;;;;;;;;;;;;;;;;;5058714;28;20396;-87
2022/06/26 10:51:53;;;;;;;;;;;;;;;;;;5065121;28;19951;-87
2022/06/26 10:54:19;;;;;;;;;;;;;;;;;;5063530;28;19920;-86
2022/06/26 10:56:46;;;;;;;;;;;;;;;;;;5070438;28;19917;-86
2022/06/26 10:59:13;;;;;;;;;;;;;;;;;;5055665;28;19948;-87
2022/06/26 11:01:39;;;;;;;;;;;;;;;;;;5052929;28;19943;-86
2022/06/26 11:04:05;;;;;;;;;;;;;;;;;;5065537;28;19955;-84
2022/06/26 11:06:31;;;;;;;;;;;;;;;;;;5065295;28;19939;-86
2022/06/26 11:08:58;;;;;;;;;;;;;;;;;;5050290;28;20342;-86
2022/06/26 11:11:25;;;;;;;;;;;;;;;;;;5062479;28;19925;-85
2022/06/26 11:13:51;;;;;;;;;;;;;;;;;;5036226;28;19916;-86
2022/06/26 11:16:17;;;;;;;;;;;;;;;;;;5050877;28;20552;-86
2022/06/26 11:18:43;;;;;;;;;;;;;;;;;;5068201;28;19951;-85
2022/06/26 11:21:10;;;;;;;;;;;;;;;;;;5067185;28;19956;-85
2022/06/26 11:23:36;;;;;;;;;;;;;;;;;;5068910;28;20388;-86
2022/06/26 11:26:02;;;;;;;;;;;;;;;;;;5058310;28;20301;-84
2022/06/26 11:28:28;;;;;;;;;;;;;;;;;;5054510;28;19944;-83
2022/06/26 11:30:54;;;;;;;;;;;;;;;;;;5066768;28;19952;-85
2022/06/26 11:33:21;;;;;;;;;;;;;;;;;;5065781;28;20026;-86
2022/06/26 11:35:47;;;;;;;;;;;;;;;;;;5061535;28;19944;-87
2022/06/26 11:38:13;;;;;;;;;;;;;;;;;;5066467;28;19952;-87
2022/06/26 11:40:39;;;;;;;;;;;;;;;;;;5069652;28;20321;-85
2022/06/26 11:43:05;;;;;;;;;;;;;;;;;;5069552;28;19953;-85
2022/06/26 11:45:32;;;;;;;;;;;;;;;;;;5064981;28;19951;-86
2022/06/26 11:47:58;;;;;;;;;;;;;;;;;;5066597;28;19952;-85
2022/06/26 11:50:27;;;;;;;;;;;;;;;;;;5046491;28;19955;-86
2022/06/26 11:52:53;;;;;;;;;;;;;;;;;;5049241;28;20012;-86
2022/06/26 11:55:20;;;;;;;;;;;;;;;;;;5054087;28;19928;-86
2022/06/26 11:57:46;;;;;;;;;;;;;;;;;;5068243;28;19939;-86
2022/06/26 12:00:12;;;;;;;;;;;;;;;;;;5067730;28;19961;-86
2022/06/26 12:02:38;;;;;;;;;;;;;;;;;;5064798;28;19959;-86
2022/06/26 12:05:04;;;;;;;;;;;;;;;;;;5047314;28;20404;-86
2022/06/26 12:07:31;;;;;;;;;;;;;;;;;;5064975;28;19944;-86
2022/06/26 12:09:57;;;;;;;;;;;;;;;;;;5055641;28;19948;-84
2022/06/26 12:12:23;;;;;;;;;;;;;;;;;;5059386;28;19978;-86
2022/06/26 12:14:49;;;;;;;;;;;;;;;;;;5055238;28;19982;-86
2022/06/26 12:17:15;;;;;;;;;;;;;;;;;;5050114;28;19941;-86
2022/06/26 12:19:42;;;;;;;;;;;;;;;;;;5048795;28;19919;-86
2022/06/26 12:22:08;;;;;;;;;;;;;;;;;;5067699;28;19952;-85
2022/06/26 12:24:35;;;;;;;;;;;;;;;;;;5061920;28;19956;-86
2022/06/26 12:27:01;;;;;;;;;;;;;;;;;;5066166;28;19956;-87
2022/06/26 12:29:27;;;;;;;;;;;;;;;;;;5067596;28;19951;-87
2022/06/26 12:31:53;;;;;;;;;;;;;;;;;;5065721;28;20642;-86
2022/06/26 12:34:19;;;;;;;;;;;;;;;;;;5061241;28;20575;-86
2022/06/26 12:36:45;;;;;;;;;;;;;;;;;;5064293;28;19955;-86
2022/06/26 12:39:12;;;;;;;;;;;;;;;;;;5063712;28;19947;-86
2022/06/26 12:41:38;;;;;;;;;;;;;;;;;;5066061;28;19952;-86
2022/06/26 12:44:04;;;;;;;;;;;;;;;;;;5067110;28;19967;-85
2022/06/26 12:46:30;;;;;;;;;;;;;;;;;;5049446;28;19944;-86
2022/06/26 12:48:57;;;;;;;;;;;;;;;;;;5057469;28;19959;-86
2022/06/26 12:51:23;;;;;;;;;;;;;;;;;;5054634;28;20009;-86
2022/06/26 12:53:49;;;;;;;;;;;;;;;;;;5054795;28;19963;-86
2022/06/26 12:56:15;;;;;;;;;;;;;;;;;;5055586;28;20404;-86
2022/06/26 12:58:41;;;;;;;;;;;;;;;;;;5066528;28;20001;-86
2022/06/26 13:01:08;;;;;;;;;;;;;;;;;;5060287;28;19952;-85
2022/06/26 13:03:35;;;;;;;;;;;;;;;;;;5063534;28;19924;-86
2022/06/26 13:06:01;;;;;;;;;;;;;;;;;;5055039;28;19940;-87
2022/06/26 13:08:27;;;;;;;;;;;;;;;;;;5060820;28;19941;-87
2022/06/26 13:11:22;;;;;;;;;;;;;;;;;;5060723;28;20344;-87
2022/06/26 13:13:40;;;;;;;;;;;;;;;;;;5058642;28;20420;-86
2022/06/26 13:16:06;;;;;;;;;;;;;;;;;;5057868;28;19944;-86
2022/06/26 13:18:32;;;;;;;;;;;;;;;;;;5049574;28;20376;-87
2022/06/26 13:20:58;;;;;;;;;;;;;;;;;;5056741;28;19952;-87
2022/06/26 13:23:24;;;;;;;;;;;;;;;;;;5061594;28;20025;-86
2022/06/26 13:25:50;;;;;;;;;;;;;;;;;;5054319;28;20009;-86
2022/06/26 13:28:17;;;;;;;;;;;;;;;;;;5051763;28;19952;-86
2022/06/26 13:30:43;;;;;;;;;;;;;;;;;;5049378;28;20017;-85
2022/06/26 13:33:09;;;;;;;;;;;;;;;;;;5066604;28;19964;-84
2022/06/26 13:35:35;;;;;;;;;;;;;;;;;;5055513;28;19913;-87
2022/06/26 13:38:01;;;;;;;;;;;;;;;;;;5062328;28;19951;-85
2022/06/26 13:40:28;;;;;;;;;;;;;;;;;;5060205;28;20436;-85
2022/06/26 13:42:54;;;;;;;;;;;;;;;;;;5066473;28;19947;-85
2022/06/26 13:45:20;;;;;;;;;;;;;;;;;;5054981;28;19958;-86
2022/06/26 13:47:46;;;;;;;;;;;;;;;;;;5062956;28;19948;-86
2022/06/26 13:50:12;;;;;;;;;;;;;;;;;;5057184;28;19980;-86
2022/06/26 13:52:39;;;;;;;;;;;;;;;;;;5055875;28;20389;-86
2022/06/26 13:55:05;;;;;;;;;;;;;;;;;;5066239;28;19967;-86
2022/06/26 13:57:31;;;;;;;;;;;;;;;;;;5057860;28;19948;-85
2022/06/26 13:59:57;;;;;;;;;;;;;;;;;;5062427;28;19962;-86
2022/06/26 14:02:23;;;;;;;;;;;;;;;;;;5059988;28;19966;-86
2022/06/26 14:04:50;;;;;;;;;;;;;;;;;;5066893;28;19972;-86
2022/06/26 14:07:16;;;;;;;;;;;;;;;;;;5046504;28;19955;-86
2022/06/26 14:09:42;;;;;;;;;;;;;;;;;;5061537;28;19912;-85
2022/06/26 14:12:08;;;;;;;;;;;;;;;;;;5048862;28;19955;-83
2022/06/26 14:14:34;;;;;;;;;;;;;;;;;;5055395;28;19982;-87
2022/06/26 14:17:00;;;;;;;;;;;;;;;;;;5055942;28;19975;-87
2022/06/26 14:19:27;;;;;;;;;;;;;;;;;;5054700;28;19963;-85
2022/06/26 14:25:55;;;;;;;;;;;;;;;;;;5044358;28;20471;-86
2022/06/26 14:27:24;;;;;;;;;;;;;;;;;;5061368;28;19975;-84
2022/06/26 14:29:50;;;;;;;;;;;;;;;;;;5051241;28;19956;-86
2022/06/26 14:32:16;;;;;;;;;;;;;;;;;;5064226;28;19948;-87
2022/06/26 14:34:42;;;;;;;;;;;;;;;;;;5066613;28;19951;-86
2022/06/26 14:37:08;;;;;;;;;;;;;;;;;;5051602;28;20769;-86
2022/06/26 14:39:35;;;;;;;;;;;;;;;;;;5053580;28;19920;-87
2022/06/26 14:42:01;;;;;;;;;;;;;;;;;;5053357;28;19917;-85
2022/06/26 14:44:27;;;;;;;;;;;;;;;;;;5055163;28;19912;-86
2022/06/26 14:46:53;;;;;;;;;;;;;;;;;;5063839;28;20447;-87
2022/06/26 14:49:19;;;;;;;;;;;;;;;;;;5067882;28;19963;-86
2022/06/26 14:51:47;;;;;;;;;;;;;;;;;;5061773;28;19963;-86
2022/06/26 14:54:13;;;;;;;;;;;;;;;;;;5063931;28;19956;-85
2022/06/26 14:56:40;;;;;;;;;;;;;;;;;;5057346;28;20447;-86
2022/06/26 14:59:06;;;;;;;;;;;;;;;;;;5063984;28;19972;-86
2022/06/26 15:01:32;;;;;;;;;;;;;;;;;;5056096;28;19953;-87
2022/06/26 15:04:00;;;;;;;;;;;;;;;;;;5073189;28;19981;-85
2022/06/26 15:06:26;;;;;;;;;;;;;;;;;;5065979;28;19959;-86
2022/06/26 15:08:52;;;;;;;;;;;;;;;;;;5059915;28;19990;-86
2022/06/26 15:11:18;;;;;;;;;;;;;;;;;;5062208;28;19967;-86
2022/06/26 15:13:45;;;;;;;;;;;;;;;;;;5061367;28;19968;-86
2022/06/26 15:16:11;;;;;;;;;;;;;;;;;;5070785;28;20406;-84
2022/06/26 15:18:37;;;;;;;;;;;;;;;;;;5065882;28;19951;-84
2022/06/26 15:21:03;;;;;;;;;;;;;;;;;;5053161;28;19941;-84
2022/06/26 15:23:29;;;;;;;;;;;;;;;;;;5058444;28;20076;-85
2022/06/26 15:25:56;;;;;;;;;;;;;;;;;;5068812;28;19991;-85
2022/06/26 15:28:23;;;;;;;;;;;;;;;;;;5069230;28;19940;-86
2022/06/26 15:30:49;;;;;;;;;;;;;;;;;;5052144;28;19955;-86
2022/06/26 15:33:16;;;;;;;;;;;;;;;;;;5069047;28;19968;-84
2022/06/26 15:35:42;;;;;;;;;;;;;;;;;;5066912;28;19944;-85
2022/06/26 15:38:08;;;;;;;;;;;;;;;;;;5061179;28;20273;-88
2022/06/26 15:40:34;;;;;;;;;;;;;;;;;;5069573;28;19952;-85
2022/06/26 15:43:00;;;;;;;;;;;;;;;;;;5037399;28;19955;-89
2022/06/26 15:45:27;;;;;;;;;;;;;;;;;;5067630;28;19920;-88
2022/06/26 15:47:53;;;;;;;;;;;;;;;;;;5064488;28;19944;-86
2022/06/26 15:50:19;;;;;;;;;;;;;;;;;;5070030;28;20019;-86
2022/06/26 15:52:45;;;;;;;;;;;;;;;;;;5068580;28;19966;-88
2022/06/26 15:55:12;;;;;;;;;;;;;;;;;;5069551;28;19959;-87
2022/06/26 15:57:38;;;;;;;;;;;;;;;;;;5051339;28;19951;-87
2022/06/26 16:00:04;;;;;;;;;;;;;;;;;;5041277;28;19917;-86
2022/06/26 16:02:32;;;;;;;;;;;;;;;;;;5067551;28;19947;-85
2022/06/26 16:04:58;;;;;;;;;;;;;;;;;;5058168;28;20439;-85
2022/06/26 16:07:24;;;;;;;;;;;;;;;;;;5064073;28;19978;-84
2022/06/26 16:09:50;;;;;;;;;;;;;;;;;;5057475;28;19952;-85
2022/06/26 16:12:16;;;;;;;;;;;;;;;;;;5064281;28;19952;-84
2022/06/26 16:14:43;;;;;;;;;;;;;;;;;;5065449;28;19962;-85
2022/06/26 16:17:09;;;;;;;;;;;;;;;;;;5050567;28;20727;-85
2022/06/26 16:19:35;;;;;;;;;;;;;;;;;;5064923;28;19959;-85
2022/06/26 16:27:31;;;;;;;;;;;;;;;;;;5055437;28;20340;-85
2022/06/26 16:29:58;;;;;;;;;;;;;;;;;;5065485;28;19948;-85
2022/06/26 16:32:24;;;;;;;;;;;;;;;;;;5064145;28;20107;-84
2022/06/26 16:34:50;;;;;;;;;;;;;;;;;;5061242;28;19955;-84
2022/06/26 16:37:17;;;;;;;;;;;;;;;;;;5049290;28;20329;-83
2022/06/26 16:39:43;;;;;;;;;;;;;;;;;;5054413;28;19956;-83
2022/06/26 16:42:09;;;;;;;;;;;;;;;;;;5049614;28;19921;-82
2022/06/26 16:44:35;;;;;;;;;;;;;;;;;;5067036;28;19955;-85
2022/06/26 16:47:02;;;;;;;;;;;;;;;;;;5049886;28;19990;-84
2022/06/26 16:49:28;;;;;;;;;;;;;;;;;;5055968;28;20424;-84
2022/06/26 16:51:54;;;;;;;;;;;;;;;;;;5056875;28;20334;-84
2022/06/26 16:54:22;;;;;;;;;;;;;;;;;;5064198;28;19959;-85
2022/06/26 16:56:48;;;;;;;;;;;;;;;;;;5041150;28;20392;-83
2022/06/26 16:59:14;;;;;;;;;;;;;;;;;;5062094;28;19916;-83